createdAt,value
2018-09-26T00:01:14.468Z,13.29
2018-09-26T00:03:48.678Z,13.40
2018-09-26T00:06:19.044Z,13.53
2018-09-26T00:08:47.994Z,13.53
2018-09-26T00:11:17.547Z,13.43
2018-09-26T00:13:46.654Z,13.47
2018-09-26T00:16:15.667Z,13.36
2018-09-26T00:18:44.636Z,13.55
2018-09-26T00:21:13.632Z,13.50
2018-09-26T00:23:42.593Z,13.62
2018-09-26T00:26:11.571Z,13.69
2018-09-26T00:28:40.566Z,13.56
2018-09-26T00:31:09.866Z,13.71
2018-09-26T00:33:38.896Z,13.62
2018-09-26T00:36:08.036Z,13.55
2018-09-26T00:38:37.465Z,13.52
2018-09-26T00:41:06.516Z,13.52
2018-09-26T00:43:36.097Z,13.47
2018-09-26T00:46:05.073Z,13.54
2018-09-26T00:48:34.145Z,13.56
2018-09-26T00:51:03.699Z,13.49
2018-09-26T00:53:32.668Z,13.39
2018-09-26T00:56:01.911Z,13.43
2018-09-26T00:58:30.860Z,13.28
2018-09-26T01:00:59.887Z,13.08
2018-09-26T01:03:28.948Z,13.22
2018-09-26T01:05:57.943Z,13.11
2018-09-26T01:08:26.967Z,13.04
2018-09-26T01:10:56.030Z,13.19
2018-09-26T01:13:25.192Z,13.25
2018-09-26T01:15:54.155Z,13.30
2018-09-26T01:18:23.116Z,13.14
2018-09-26T01:20:52.342Z,13.01
2018-09-26T01:23:21.313Z,12.87
2018-09-26T01:25:50.256Z,12.89
2018-09-26T01:28:19.983Z,12.80
2018-09-26T01:30:49.068Z,12.72
2018-09-26T01:33:18.439Z,12.70
2018-09-26T01:35:47.484Z,12.77
2018-09-26T01:38:17.223Z,12.66
2018-09-26T01:40:46.572Z,12.63
2018-09-26T01:43:16.075Z,12.65
2018-09-26T01:45:45.068Z,12.82
2018-09-26T01:48:14.103Z,12.97
2018-09-26T01:50:43.165Z,12.87
2018-09-26T01:53:12.115Z,12.89
2018-09-26T01:55:41.092Z,13.12
2018-09-26T01:58:10.182Z,13.04
2018-09-26T02:00:39.119Z,12.84
2018-09-26T02:03:08.423Z,12.73
2018-09-26T02:05:37.499Z,12.68
2018-09-26T02:08:06.534Z,12.75
2018-09-26T02:10:35.487Z,13.01
2018-09-26T02:13:04.896Z,12.83
2018-09-26T02:15:33.986Z,12.83
2018-09-26T02:18:03.061Z,13.01
2018-09-26T02:20:32.106Z,12.84
2018-09-26T02:23:01.533Z,12.79
2018-09-26T02:25:30.832Z,13.06
2018-09-26T02:28:00.168Z,12.97
2018-09-26T02:30:29.109Z,12.92
2018-09-26T02:32:58.078Z,12.96
2018-09-26T02:35:27.136Z,13.00
2018-09-26T02:37:56.035Z,12.90
2018-09-26T02:40:25.538Z,12.86
2018-09-26T02:42:54.569Z,12.78
2018-09-26T02:45:23.767Z,12.62
2018-09-26T02:47:52.683Z,12.53
2018-09-26T02:50:21.803Z,12.54
2018-09-26T02:52:50.846Z,12.74
2018-09-26T02:55:20.600Z,12.65
2018-09-26T02:57:49.812Z,12.62
2018-09-26T03:00:20.852Z,12.56
2018-09-26T03:02:49.799Z,12.71
2018-09-26T03:05:20.607Z,12.64
2018-09-26T03:07:49.539Z,12.73
2018-09-26T03:10:20.093Z,12.59
2018-09-26T03:12:49.029Z,12.53
2018-09-26T03:15:19.382Z,12.58
2018-09-26T03:17:48.410Z,12.47
2018-09-26T03:20:20.591Z,12.30
2018-09-26T03:22:49.641Z,12.30
2018-09-26T03:25:20.115Z,12.38
2018-09-26T03:27:49.369Z,12.31
2018-09-26T03:30:21.330Z,12.42
2018-09-26T03:32:50.321Z,12.59
2018-09-26T03:35:20.521Z,12.57
2018-09-26T03:37:49.506Z,12.68
2018-09-26T03:40:20.843Z,12.53
2018-09-26T03:42:49.869Z,12.37
2018-09-26T03:45:21.001Z,12.37
2018-09-26T03:47:49.997Z,12.37
2018-09-26T03:50:22.091Z,12.32
2018-09-26T03:52:52.216Z,12.45
2018-09-26T03:55:21.147Z,12.37
2018-09-26T03:57:50.150Z,12.26
2018-09-26T04:00:21.459Z,12.10
2018-09-26T04:02:50.813Z,12.08
2018-09-26T04:05:22.000Z,11.94
2018-09-26T04:07:50.993Z,11.85
2018-09-26T04:10:23.069Z,11.98
2018-09-26T04:12:52.100Z,12.11
2018-09-26T04:15:23.364Z,11.90
2018-09-26T04:17:52.743Z,11.75
2018-09-26T04:20:22.647Z,11.66
2018-09-26T04:22:51.643Z,11.66
2018-09-26T04:25:21.592Z,11.68
2018-09-26T04:27:50.576Z,11.61
2018-09-26T04:30:22.152Z,11.54
2018-09-26T04:32:51.161Z,11.81
2018-09-26T04:35:21.130Z,11.75
2018-09-26T04:37:50.293Z,11.64
2018-09-26T04:40:21.615Z,11.68
2018-09-26T04:42:50.864Z,11.59
2018-09-26T04:45:21.177Z,11.65
2018-09-26T04:47:50.284Z,11.65
2018-09-26T04:50:21.247Z,11.56
2018-09-26T04:52:50.284Z,11.67
2018-09-26T04:55:20.837Z,11.60
2018-09-26T04:57:49.979Z,11.59
2018-09-26T05:00:21.227Z,11.67
2018-09-26T05:02:50.288Z,11.54
2018-09-26T05:05:21.320Z,11.43
2018-09-26T05:07:50.470Z,11.42
2018-09-26T05:10:22.650Z,11.41
2018-09-26T05:12:52.256Z,11.30
2018-09-26T05:15:22.161Z,11.39
2018-09-26T05:17:51.549Z,11.61
2018-09-26T05:20:24.707Z,11.75
2018-09-26T05:22:54.087Z,12.01
2018-09-26T05:25:23.447Z,12.16
2018-09-26T05:27:52.926Z,12.28
2018-09-26T05:30:23.579Z,12.48
2018-09-26T05:32:52.620Z,12.64
2018-09-26T05:35:23.727Z,12.89
2018-09-26T05:37:53.205Z,13.13
2018-09-26T05:40:23.908Z,13.43
2018-09-26T05:42:53.143Z,13.62
2018-09-26T05:45:22.584Z,13.87
2018-09-26T05:47:51.609Z,14.08
2018-09-26T05:50:25.846Z,14.30
2018-09-26T05:52:55.025Z,14.43
2018-09-26T05:55:26.986Z,14.59
2018-09-26T05:57:57.139Z,14.67
2018-09-26T06:00:26.817Z,14.81
2018-09-26T06:02:56.890Z,15.01
2018-09-26T06:05:28.735Z,15.43
2018-09-26T06:07:59.563Z,15.32
2018-09-26T06:10:29.005Z,15.31
2018-09-26T06:12:58.763Z,15.56
2018-09-26T06:15:28.117Z,15.49
2018-09-26T06:17:57.592Z,15.76
2018-09-26T06:20:28.456Z,16.00
2018-09-26T06:22:59.977Z,16.25
2018-09-26T06:25:29.529Z,16.51
2018-09-26T06:27:58.671Z,16.57
2018-09-26T06:30:27.951Z,17.04
2018-09-26T06:32:57.509Z,16.49
2018-09-26T06:35:28.518Z,16.71
2018-09-26T06:37:58.689Z,16.97
2018-09-26T06:40:27.914Z,17.38
2018-09-26T06:42:57.098Z,16.98
2018-09-26T06:45:26.689Z,16.74
2018-09-26T06:47:55.761Z,17.09
2018-09-26T06:50:26.080Z,15.70
2018-09-26T06:52:55.486Z,16.30
2018-09-26T06:55:25.136Z,16.13
2018-09-26T06:57:54.282Z,15.18
2018-09-26T07:00:23.894Z,15.41
2018-09-26T07:02:52.935Z,16.20
2018-09-26T07:05:22.986Z,16.54
2018-09-26T07:07:52.161Z,15.26
2018-09-26T07:10:24.131Z,14.69
2018-09-26T07:12:53.205Z,15.33
2018-09-26T07:15:22.591Z,15.32
2018-09-26T07:17:52.278Z,15.21
2018-09-26T07:20:24.920Z,14.50
2018-09-26T07:22:54.297Z,14.44
2018-09-26T07:25:23.899Z,14.80
2018-09-26T07:27:53.128Z,14.58
2018-09-26T07:30:25.488Z,14.66
2018-09-26T07:32:54.676Z,14.48
2018-09-26T07:35:24.326Z,14.78
2018-09-26T07:37:53.566Z,14.70
2018-09-26T07:40:25.875Z,14.81
2018-09-26T07:42:55.093Z,15.53
2018-09-26T07:45:24.491Z,15.86
2018-09-26T07:47:53.644Z,16.15
2018-09-26T07:50:24.344Z,15.94
2018-09-26T07:52:53.475Z,16.27
2018-09-26T07:55:23.133Z,17.24
2018-09-26T07:57:52.400Z,17.06
2018-09-26T08:00:22.753Z,16.87
2018-09-26T08:02:51.931Z,16.26
2018-09-26T08:05:23.056Z,16.15
2018-09-26T08:07:52.267Z,16.29
2018-09-26T08:10:24.347Z,15.52
2018-09-26T08:12:53.466Z,14.95
2018-09-26T08:15:23.213Z,15.26
2018-09-26T08:17:52.413Z,15.38
2018-09-26T08:20:24.352Z,15.41
2018-09-26T08:22:53.649Z,15.95
2018-09-26T08:25:23.152Z,15.64
2018-09-26T08:27:52.278Z,15.94
2018-09-26T08:30:23.638Z,16.15
2018-09-26T08:32:52.829Z,16.67
2018-09-26T08:35:23.717Z,16.66
2018-09-26T08:37:53.050Z,16.80
2018-09-26T08:40:24.718Z,16.58
2018-09-26T08:42:53.863Z,17.14
2018-09-26T08:45:24.170Z,16.82
2018-09-26T08:47:53.418Z,17.44
2018-09-26T08:50:23.740Z,17.91
2018-09-26T08:52:52.924Z,17.58
2018-09-26T08:55:22.234Z,16.83
2018-09-26T08:57:51.421Z,16.71
2018-09-26T09:00:29.776Z,16.62
2018-09-26T09:02:59.008Z,16.44
2018-09-26T09:05:28.612Z,16.71
2018-09-26T09:07:57.871Z,16.35
2018-09-26T09:10:27.184Z,16.89
2018-09-26T09:12:56.329Z,17.58
2018-09-26T09:15:27.016Z,16.71
2018-09-26T09:17:56.271Z,16.65
2018-09-26T09:20:26.046Z,16.60
2018-09-26T09:22:55.597Z,17.44
2018-09-26T09:25:25.485Z,16.96
2018-09-26T09:27:54.773Z,16.67
2018-09-26T09:30:25.233Z,16.87
2018-09-26T09:32:54.767Z,16.77
2018-09-26T09:35:25.200Z,16.67
2018-09-26T09:37:54.462Z,16.58
2018-09-26T09:40:24.414Z,16.54
2018-09-26T09:42:53.814Z,16.71
2018-09-26T09:45:23.753Z,16.61
2018-09-26T09:47:52.874Z,16.62
2018-09-26T09:50:22.346Z,16.19
2018-09-26T09:52:52.040Z,16.10
2018-09-26T09:55:23.212Z,16.36
2018-09-26T09:57:52.372Z,16.92
2018-09-26T10:00:30.186Z,16.27
2018-09-26T10:02:59.427Z,16.80
2018-09-26T10:05:28.664Z,16.62
2018-09-26T10:07:59.064Z,16.78
2018-09-26T10:10:28.413Z,17.00
2018-09-26T10:12:57.571Z,17.23
2018-09-26T10:15:26.843Z,17.19
2018-09-26T10:17:56.169Z,17.24
2018-09-26T10:20:25.771Z,17.73
2018-09-26T10:22:54.809Z,17.42
2018-09-26T10:25:24.302Z,17.05
2018-09-26T10:27:53.373Z,17.19
2018-09-26T10:30:25.137Z,17.97
2018-09-26T10:32:54.188Z,18.21
2018-09-26T10:35:23.852Z,18.34
2018-09-26T10:37:53.008Z,17.93
2018-09-26T10:40:24.814Z,17.43
2018-09-26T10:42:53.903Z,18.04
2018-09-26T10:45:23.355Z,18.25
2018-09-26T10:47:52.346Z,17.64
2018-09-26T10:50:21.551Z,18.12
2018-09-26T10:52:50.631Z,17.42
2018-09-26T10:55:25.978Z,17.51
2018-09-26T10:57:55.092Z,18.12
2018-09-26T11:00:29.025Z,17.91
2018-09-26T11:02:58.017Z,18.65
2018-09-26T11:05:27.107Z,17.85
2018-09-26T11:07:56.220Z,18.15
2018-09-26T11:10:25.800Z,18.76
2018-09-26T11:12:54.780Z,18.35
2018-09-26T11:15:24.055Z,18.02
2018-09-26T11:17:53.116Z,18.56
2018-09-26T11:20:25.571Z,17.84
2018-09-26T11:22:54.580Z,18.12
2018-09-26T11:25:25.487Z,18.24
2018-09-26T11:27:54.551Z,17.72
2018-09-26T11:30:25.918Z,17.90
2018-09-26T11:32:55.008Z,18.20
2018-09-26T11:35:24.103Z,19.26
2018-09-26T11:37:53.252Z,18.54
2018-09-26T11:40:25.148Z,18.20
2018-09-26T11:42:54.274Z,18.25
2018-09-26T11:45:23.784Z,18.04
2018-09-26T11:47:55.540Z,18.64
2018-09-26T11:50:30.747Z,18.58
2018-09-26T11:53:04.710Z,18.18
2018-09-26T11:55:33.776Z,17.90
2018-09-26T11:58:02.977Z,18.01
2018-09-26T12:00:32.053Z,17.71
2018-09-26T12:03:01.111Z,18.28
2018-09-26T12:05:30.415Z,18.55
2018-09-26T12:07:59.511Z,18.64
2018-09-26T12:16:15.271Z,18.29
2018-09-26T12:18:46.809Z,17.56
2018-09-26T12:21:16.438Z,17.93
2018-09-26T12:23:46.590Z,18.32
2018-09-26T12:26:17.293Z,18.27
2018-09-26T12:28:49.244Z,18.31
2018-09-26T12:31:18.840Z,17.89
2018-09-26T12:33:51.653Z,18.22
2018-09-26T12:36:22.879Z,18.19
2018-09-26T12:38:52.213Z,18.48
2018-09-26T12:41:23.159Z,17.93
2018-09-26T12:43:52.497Z,18.20
2018-09-26T12:46:21.919Z,18.25
2018-09-26T12:48:50.956Z,18.95
2018-09-26T12:51:20.076Z,18.81
2018-09-26T12:53:49.391Z,18.17
2018-09-26T12:56:18.335Z,18.47
2018-09-26T12:58:47.505Z,18.04
2018-09-26T13:01:16.646Z,18.05
2018-09-26T13:03:45.683Z,18.05
2018-09-26T13:06:14.928Z,18.12
2018-09-26T13:08:44.174Z,18.05
2018-09-26T13:11:13.406Z,18.10
2018-09-26T13:13:42.677Z,17.94
2018-09-26T13:16:12.083Z,18.19
2018-09-26T13:18:41.553Z,18.23
2018-09-26T13:21:10.728Z,18.84
2018-09-26T13:23:39.811Z,18.26
2018-09-26T13:26:08.914Z,18.57
2018-09-26T13:28:38.245Z,19.30
2018-09-26T13:31:07.397Z,18.89
2018-09-26T13:33:36.586Z,18.98
2018-09-26T13:36:05.748Z,18.90
2018-09-26T13:38:34.865Z,18.56
2018-09-26T13:41:03.909Z,18.50
2018-09-26T13:43:33.013Z,18.39
2018-09-26T13:46:02.107Z,18.32
2018-09-26T13:48:31.155Z,18.44
2018-09-26T13:51:00.345Z,18.56
2018-09-26T13:53:29.524Z,18.45
2018-09-26T13:55:58.531Z,18.35
2018-09-26T13:58:27.674Z,18.50
2018-09-26T14:00:56.784Z,18.71
2018-09-26T14:03:26.196Z,18.37
2018-09-26T14:05:55.537Z,18.08
2018-09-26T14:08:25.051Z,18.00
2018-09-26T14:10:54.220Z,17.96
2018-09-26T14:13:23.888Z,17.85
2018-09-26T14:15:52.911Z,17.89
2018-09-26T14:18:22.061Z,17.74
2018-09-26T14:20:51.177Z,17.75
2018-09-26T14:23:20.341Z,17.76
2018-09-26T14:25:49.525Z,17.78
2018-09-26T14:28:18.965Z,17.79
2018-09-26T14:30:48.436Z,17.75
2018-09-26T14:33:17.550Z,17.70
2018-09-26T14:35:46.821Z,17.70
2018-09-26T14:38:16.102Z,17.62
2018-09-26T14:40:45.241Z,17.64
2018-09-26T14:43:14.278Z,17.65
2018-09-26T14:45:43.407Z,17.68
2018-09-26T14:48:12.398Z,17.67
2018-09-26T14:50:41.533Z,17.53
2018-09-26T14:53:10.657Z,17.41
2018-09-26T14:55:39.909Z,17.40
2018-09-26T14:58:09.128Z,17.41
2018-09-26T15:00:38.175Z,17.39
2018-09-26T15:03:07.711Z,17.38
2018-09-26T15:05:36.783Z,17.37
2018-09-26T15:08:05.974Z,17.30
2018-09-26T15:10:35.033Z,17.21
2018-09-26T15:13:04.244Z,17.19
2018-09-26T15:15:33.285Z,17.21
2018-09-26T15:18:02.320Z,17.20
2018-09-26T15:20:32.417Z,17.20
2018-09-26T15:23:01.475Z,17.18
2018-09-26T15:25:30.547Z,17.15
2018-09-26T15:27:59.871Z,17.15
2018-09-26T15:30:28.867Z,17.12
2018-09-26T15:32:58.020Z,17.08
2018-09-26T15:35:27.086Z,17.07
2018-09-26T15:37:56.209Z,17.03
2018-09-26T15:40:25.620Z,17.00
2018-09-26T15:42:54.808Z,16.89
2018-09-26T15:45:24.021Z,16.83
2018-09-26T15:47:53.105Z,16.72
2018-09-26T15:50:23.608Z,16.67
2018-09-26T15:52:52.618Z,16.72
2018-09-26T15:55:21.628Z,16.74
2018-09-26T15:57:50.719Z,16.68
2018-09-26T16:00:21.061Z,16.66
2018-09-26T16:02:50.364Z,16.65
2018-09-26T16:05:19.653Z,16.61
2018-09-26T16:07:48.791Z,16.58
2018-09-26T16:10:17.904Z,16.50
2018-09-26T16:12:46.959Z,16.50
2018-09-26T16:15:18.065Z,16.55
2018-09-26T16:17:47.392Z,16.47
2018-09-26T16:20:16.460Z,16.37
2018-09-26T16:22:45.592Z,16.31
2018-09-26T16:25:15.566Z,16.41
2018-09-26T16:27:44.617Z,16.30
2018-09-26T16:30:13.742Z,16.34
2018-09-26T16:32:42.915Z,16.17
2018-09-26T16:35:12.804Z,15.98
2018-09-26T16:37:41.905Z,15.83
2018-09-26T16:40:11.106Z,15.78
2018-09-26T16:42:40.196Z,15.66
2018-09-26T16:45:10.084Z,15.60
2018-09-26T16:47:39.184Z,15.53
2018-09-26T16:50:08.308Z,15.42
2018-09-26T16:52:37.530Z,15.33
2018-09-26T16:55:06.683Z,15.26
2018-09-26T16:57:35.692Z,15.17
2018-09-26T17:00:04.900Z,15.02
2018-09-26T17:02:34.017Z,14.94
2018-09-26T17:05:03.128Z,14.79
2018-09-26T17:07:32.269Z,14.71
2018-09-26T17:10:01.471Z,14.68
2018-09-26T17:12:30.526Z,14.68
2018-09-26T17:14:59.541Z,14.65
2018-09-26T17:17:33.092Z,14.47
2018-09-26T17:22:54.719Z,14.29
2018-09-26T17:25:24.910Z,14.31
2018-09-26T17:27:54.101Z,14.22
2018-09-26T17:30:24.147Z,14.16
2018-09-26T17:32:53.516Z,14.11
2018-09-26T17:35:22.951Z,14.06
2018-09-26T17:37:53.158Z,13.97
2018-09-26T17:40:25.441Z,13.90
2018-09-26T17:42:54.867Z,13.85
2018-09-26T17:45:24.268Z,13.77
2018-09-26T17:50:46.125Z,13.68
2018-09-26T17:53:15.329Z,13.63
2018-09-26T17:55:44.581Z,13.63
2018-09-26T17:58:13.754Z,13.60
2018-09-26T18:00:50.493Z,13.48
2018-09-26T18:03:24.674Z,13.41
2018-09-26T18:05:57.495Z,13.27
2018-09-26T18:08:33.066Z,13.09
2018-09-26T18:11:07.949Z,12.98
2018-09-26T18:13:43.020Z,12.94
2018-09-26T18:16:18.162Z,12.76
2018-09-26T18:18:53.231Z,12.69
2018-09-26T18:21:30.551Z,12.61
2018-09-26T18:24:04.317Z,12.54
2018-09-26T18:26:40.863Z,12.60
2018-09-26T18:29:15.644Z,12.64
2018-09-26T18:31:52.217Z,12.56
2018-09-26T18:34:27.308Z,12.53
2018-09-26T18:37:04.920Z,12.40
2018-09-26T18:39:41.778Z,12.34
2018-09-26T18:42:19.011Z,12.30
2018-09-26T18:44:54.447Z,12.26
2018-09-26T18:47:30.822Z,12.22
2018-09-26T18:50:03.099Z,12.17
2018-09-26T18:52:32.902Z,12.15
2018-09-26T18:55:03.407Z,12.29
2018-09-26T18:57:33.007Z,12.21
2018-09-26T19:00:03.949Z,12.15
2018-09-26T19:02:36.255Z,12.07
2018-09-26T19:05:07.305Z,12.07
2018-09-26T19:07:38.109Z,11.83
2018-09-26T19:10:10.482Z,11.84
2018-09-26T19:12:46.933Z,11.86
2018-09-26T19:15:20.261Z,11.80
2018-09-26T19:17:50.166Z,11.60
2018-09-26T19:20:26.220Z,11.63
2018-09-26T19:22:56.333Z,11.63
2018-09-26T19:25:25.647Z,11.63
2018-09-26T19:27:54.568Z,11.59
2018-09-26T19:30:24.731Z,11.44
2018-09-26T19:32:53.852Z,11.38
2018-09-26T19:35:23.580Z,11.22
2018-09-26T19:37:52.897Z,11.12
2018-09-26T19:40:34.722Z,11.18
2018-09-26T19:43:14.863Z,11.18
2018-09-26T19:45:44.938Z,11.21
2018-09-26T19:48:14.984Z,11.11
2018-09-26T19:50:44.689Z,11.04
2018-09-26T19:53:15.652Z,11.08
2018-09-26T19:55:51.794Z,11.02
2018-09-26T19:58:24.123Z,11.08
2018-09-26T20:00:53.623Z,10.94
2018-09-26T20:03:24.494Z,10.81
2018-09-26T20:05:54.129Z,10.85
2018-09-26T20:08:24.643Z,10.82
2018-09-26T20:10:54.748Z,10.73
2018-09-26T20:13:25.212Z,10.76
2018-09-26T20:15:54.821Z,10.83
2018-09-26T20:18:26.276Z,10.76
2018-09-26T20:20:55.227Z,10.69
2018-09-26T20:23:25.161Z,10.66
2018-09-26T20:25:55.232Z,10.79
2018-09-26T20:28:25.165Z,10.86
2018-09-26T20:30:54.100Z,10.86
2018-09-26T20:33:23.603Z,10.78
2018-09-26T20:35:52.566Z,10.80
2018-09-26T20:38:21.973Z,10.87
2018-09-26T20:40:51.543Z,10.83
2018-09-26T20:43:27.057Z,10.72
2018-09-26T20:45:56.333Z,10.75
2018-09-26T20:48:25.676Z,10.78
2018-09-26T20:50:54.696Z,10.76
2018-09-26T20:53:24.538Z,10.72
2018-09-26T20:55:53.579Z,10.70
2018-09-26T20:58:23.832Z,10.62
2018-09-26T21:00:52.985Z,10.66
2018-09-26T21:03:22.363Z,10.80
2018-09-26T21:05:51.379Z,10.65
2018-09-26T21:08:21.323Z,10.67
2018-09-26T21:10:50.650Z,10.72
2018-09-26T21:13:20.895Z,10.76
2018-09-26T21:15:50.314Z,10.64
2018-09-26T21:18:19.660Z,10.69
2018-09-26T21:20:50.306Z,10.55
2018-09-26T21:23:20.118Z,10.46
2018-09-26T21:25:49.241Z,10.48
2018-09-26T21:28:18.381Z,10.46
2018-09-26T21:30:47.787Z,10.40
2018-09-26T21:33:17.025Z,10.35
2018-09-26T21:35:46.866Z,10.29
2018-09-26T21:38:16.201Z,10.29
2018-09-26T21:40:45.628Z,10.25
2018-09-26T21:43:14.810Z,10.27
2018-09-26T21:45:44.099Z,10.35
2018-09-26T21:48:15.265Z,10.27
2018-09-26T21:50:44.833Z,10.21
2018-09-26T21:53:14.153Z,10.20
2018-09-26T21:55:43.429Z,10.16
2018-09-26T21:58:12.629Z,10.26
2018-09-26T22:00:46.942Z,10.12
2018-09-26T22:03:16.771Z,10.04
2018-09-26T22:05:47.147Z,10.04
2018-09-26T22:08:17.413Z,10.07
2018-09-26T22:10:46.936Z,10.07
2018-09-26T22:13:17.250Z,9.90
2018-09-26T22:15:47.650Z,9.85
2018-09-26T22:18:17.143Z,9.82
2018-09-26T22:20:47.114Z,9.85
2018-09-26T22:23:16.431Z,9.78
2018-09-26T22:25:45.708Z,9.79
2018-09-26T22:28:14.906Z,9.77
2018-09-26T22:30:44.423Z,9.82
2018-09-26T22:33:13.652Z,9.92
2018-09-26T22:35:43.530Z,9.69
2018-09-26T22:38:13.716Z,9.79
2018-09-26T22:40:42.961Z,9.76
2018-09-26T22:43:12.608Z,9.74
2018-09-26T22:45:41.974Z,9.64
2018-09-26T22:48:11.458Z,9.64
2018-09-26T22:50:40.768Z,9.48
2018-09-26T22:53:10.144Z,9.49
2018-09-26T22:55:39.344Z,9.48
2018-09-26T22:58:08.710Z,9.58
2018-09-26T23:00:38.153Z,9.61
2018-09-26T23:03:07.754Z,9.62
2018-09-26T23:05:37.349Z,9.57
2018-09-26T23:08:07.147Z,9.64
2018-09-26T23:10:37.537Z,9.77
2018-09-26T23:30:33.602Z,9.80
2018-09-26T23:33:03.509Z,9.60
2018-09-26T23:35:44.949Z,9.57
2018-09-26T23:38:16.398Z,9.73
2018-09-26T23:44:20.071Z,9.76
2018-09-26T23:46:49.419Z,9.59
2018-09-26T23:49:18.600Z,9.29
2018-09-26T23:51:47.877Z,9.34
2018-09-26T23:54:17.647Z,9.41
2018-09-26T23:56:47.519Z,9.48
2018-09-26T23:59:16.876Z,9.62
